sensor_id;sensor_type;location;lat;lon;timestamp;pressure;altitude;pressure_sealevel;temperature
67822;BMP180;54434;50.096;20.082;2022-11-15T00:01:09;99212.60;;;4.66
67822;BMP180;54434;50.096;20.082;2022-11-15T00:04:08;99209.80;;;4.60
67822;BMP180;54434;50.096;20.082;2022-11-15T00:07:03;99210.00;;;4.60
67822;BMP180;54434;50.096;20.082;2022-11-15T00:09:58;99208.00;;;4.60
67822;BMP180;54434;50.096;20.082;2022-11-15T00:12:52;99202.20;;;4.60
67822;BMP180;54434;50.096;20.082;2022-11-15T00:15:47;99198.20;;;4.60
67822;BMP180;54434;50.096;20.082;2022-11-15T00:18:43;99197.40;;;4.60
67822;BMP180;54434;50.096;20.082;2022-11-15T00:21:42;99203.40;;;4.58
67822;BMP180;54434;50.096;20.082;2022-11-15T00:24:37;99197.60;;;4.50
67822;BMP180;54434;50.096;20.082;2022-11-15T00:27:32;99193.20;;;4.50
67822;BMP180;54434;50.096;20.082;2022-11-15T00:30:27;99192.80;;;4.50
67822;BMP180;54434;50.096;20.082;2022-11-15T00:33:22;99185.40;;;4.40
67822;BMP180;54434;50.096;20.082;2022-11-15T00:36:16;99182.80;;;4.40
67822;BMP180;54434;50.096;20.082;2022-11-15T00:39:11;99185.60;;;4.40
67822;BMP180;54434;50.096;20.082;2022-11-15T00:42:06;99175.40;;;4.40
67822;BMP180;54434;50.096;20.082;2022-11-15T00:45:01;99175.40;;;4.40
67822;BMP180;54434;50.096;20.082;2022-11-15T00:47:55;99173.60;;;4.40
67822;BMP180;54434;50.096;20.082;2022-11-15T00:50:50;99173.00;;;4.38
67822;BMP180;54434;50.096;20.082;2022-11-15T00:53:45;99166.80;;;4.30
67822;BMP180;54434;50.096;20.082;2022-11-15T00:56:39;99162.00;;;4.30
67822;BMP180;54434;50.096;20.082;2022-11-15T00:59:34;99163.60;;;4.30
67822;BMP180;54434;50.096;20.082;2022-11-15T01:02:29;99160.60;;;4.20
67822;BMP180;54434;50.096;20.082;2022-11-15T01:05:24;99160.40;;;4.20
67822;BMP180;54434;50.096;20.082;2022-11-15T01:08:19;99158.60;;;4.20
67822;BMP180;54434;50.096;20.082;2022-11-15T01:11:15;99161.40;;;4.20
67822;BMP180;54434;50.096;20.082;2022-11-15T01:14:10;99164.20;;;4.20
67822;BMP180;54434;50.096;20.082;2022-11-15T01:17:04;99158.80;;;4.20
67822;BMP180;54434;50.096;20.082;2022-11-15T01:19:58;99157.20;;;4.20
67822;BMP180;54434;50.096;20.082;2022-11-15T01:22:53;99152.60;;;4.20
67822;BMP180;54434;50.096;20.082;2022-11-15T01:25:48;99155.60;;;4.20
67822;BMP180;54434;50.096;20.082;2022-11-15T01:28:44;99146.80;;;4.20
67822;BMP180;54434;50.096;20.082;2022-11-15T01:31:39;99152.60;;;4.20
67822;BMP180;54434;50.096;20.082;2022-11-15T01:34:34;99152.40;;;4.16
67822;BMP180;54434;50.096;20.082;2022-11-15T01:37:28;99145.60;;;4.10
67822;BMP180;54434;50.096;20.082;2022-11-15T01:40:23;99143.20;;;4.10
67822;BMP180;54434;50.096;20.082;2022-11-15T01:43:27;99136.40;;;4.10
67822;BMP180;54434;50.096;20.082;2022-11-15T01:46:37;99136.40;;;4.08
67822;BMP180;54434;50.096;20.082;2022-11-15T01:49:35;99136.60;;;4.00
67822;BMP180;54434;50.096;20.082;2022-11-15T01:52:34;99135.80;;;4.00
67822;BMP180;54434;50.096;20.082;2022-11-15T01:55:30;99130.60;;;4.00
67822;BMP180;54434;50.096;20.082;2022-11-15T01:58:25;99125.60;;;4.00
67822;BMP180;54434;50.096;20.082;2022-11-15T02:01:21;99126.20;;;4.00
67822;BMP180;54434;50.096;20.082;2022-11-15T02:04:22;99122.00;;;4.00
67822;BMP180;54434;50.096;20.082;2022-11-15T02:07:21;99122.20;;;4.06
67822;BMP180;54434;50.096;20.082;2022-11-15T02:10:21;99124.40;;;4.10
67822;BMP180;54434;50.096;20.082;2022-11-15T02:13:17;99116.00;;;4.10
67822;BMP180;54434;50.096;20.082;2022-11-15T02:16:42;99114.40;;;4.10
67822;BMP180;54434;50.096;20.082;2022-11-15T02:20:30;99112.60;;;4.10
67822;BMP180;54434;50.096;20.082;2022-11-15T02:28:20;99110.00;;;4.10
67822;BMP180;54434;50.096;20.082;2022-11-15T02:31:29;99111.60;;;4.10
67822;BMP180;54434;50.096;20.082;2022-11-15T02:34:39;99110.40;;;4.12
67822;BMP180;54434;50.096;20.082;2022-11-15T02:37:45;99108.20;;;4.20
67822;BMP180;54434;50.096;20.082;2022-11-15T02:40:53;99102.40;;;4.18
67822;BMP180;54434;50.096;20.082;2022-11-15T02:43:59;99095.80;;;4.20
67822;BMP180;54434;50.096;20.082;2022-11-15T02:47:00;99088.20;;;4.20
67822;BMP180;54434;50.096;20.082;2022-11-15T02:50:12;99083.40;;;4.20
67822;BMP180;54434;50.096;20.082;2022-11-15T02:53:08;99085.00;;;4.20
67822;BMP180;54434;50.096;20.082;2022-11-15T02:56:03;99089.40;;;4.20
67822;BMP180;54434;50.096;20.082;2022-11-15T02:59:27;99085.00;;;4.20
67822;BMP180;54434;50.096;20.082;2022-11-15T03:02:45;99085.60;;;4.20
67822;BMP180;54434;50.096;20.082;2022-11-15T03:05:53;99087.80;;;4.20
67822;BMP180;54434;50.096;20.082;2022-11-15T03:09:04;99083.00;;;4.20
67822;BMP180;54434;50.096;20.082;2022-11-15T03:12:09;99077.20;;;4.20
67822;BMP180;54434;50.096;20.082;2022-11-15T03:15:18;99072.40;;;4.20
67822;BMP180;54434;50.096;20.082;2022-11-15T03:18:23;99069.40;;;4.20
67822;BMP180;54434;50.096;20.082;2022-11-15T03:21:23;99072.00;;;4.20
67822;BMP180;54434;50.096;20.082;2022-11-15T03:24:20;99070.60;;;4.20
67822;BMP180;54434;50.096;20.082;2022-11-15T03:27:25;99066.80;;;4.20
67822;BMP180;54434;50.096;20.082;2022-11-15T03:30:21;99062.00;;;4.20
67822;BMP180;54434;50.096;20.082;2022-11-15T03:33:16;99060.40;;;4.20
67822;BMP180;54434;50.096;20.082;2022-11-15T03:36:11;99055.80;;;4.20
67822;BMP180;54434;50.096;20.082;2022-11-15T03:39:10;99053.20;;;4.20
67822;BMP180;54434;50.096;20.082;2022-11-15T03:42:27;99052.40;;;4.20
67822;BMP180;54434;50.096;20.082;2022-11-15T03:45:30;99048.60;;;4.20
67822;BMP180;54434;50.096;20.082;2022-11-15T03:48:33;99038.40;;;4.20
67822;BMP180;54434;50.096;20.082;2022-11-15T03:51:30;99039.00;;;4.18
67822;BMP180;54434;50.096;20.082;2022-11-15T03:54:24;99037.60;;;4.10
67822;BMP180;54434;50.096;20.082;2022-11-15T03:57:19;99032.40;;;4.12
67822;BMP180;54434;50.096;20.082;2022-11-15T04:00:16;99031.60;;;4.12
67822;BMP180;54434;50.096;20.082;2022-11-15T04:03:10;99024.40;;;4.14
67822;BMP180;54434;50.096;20.082;2022-11-15T04:06:06;99025.20;;;4.20
67822;BMP180;54434;50.096;20.082;2022-11-15T04:09:00;99017.60;;;4.20
67822;BMP180;54434;50.096;20.082;2022-11-15T04:11:55;99012.60;;;4.14
67822;BMP180;54434;50.096;20.082;2022-11-15T04:14:50;99009.60;;;4.12
67822;BMP180;54434;50.096;20.082;2022-11-15T04:18:00;99000.80;;;4.12
67822;BMP180;54434;50.096;20.082;2022-11-15T04:20:55;98996.80;;;4.20
67822;BMP180;54434;50.096;20.082;2022-11-15T04:24:07;98989.60;;;4.20
67822;BMP180;54434;50.096;20.082;2022-11-15T04:27:07;98988.80;;;4.10
67822;BMP180;54434;50.096;20.082;2022-11-15T04:30:03;98991.00;;;4.10
67822;BMP180;54434;50.096;20.082;2022-11-15T04:32:57;98985.60;;;4.20
67822;BMP180;54434;50.096;20.082;2022-11-15T04:35:52;98979.20;;;4.10
67822;BMP180;54434;50.096;20.082;2022-11-15T04:39:05;98972.20;;;4.10
67822;BMP180;54434;50.096;20.082;2022-11-15T04:41:59;98969.40;;;4.10
67822;BMP180;54434;50.096;20.082;2022-11-15T04:44:54;98970.20;;;4.10
67822;BMP180;54434;50.096;20.082;2022-11-15T04:47:49;98970.40;;;4.10
67822;BMP180;54434;50.096;20.082;2022-11-15T04:50:44;98967.00;;;4.10
67822;BMP180;54434;50.096;20.082;2022-11-15T04:53:38;98968.00;;;4.06
67822;BMP180;54434;50.096;20.082;2022-11-15T04:56:33;98962.80;;;4.00
67822;BMP180;54434;50.096;20.082;2022-11-15T04:59:28;98962.00;;;3.90
67822;BMP180;54434;50.096;20.082;2022-11-15T05:02:23;98959.20;;;3.90
67822;BMP180;54434;50.096;20.082;2022-11-15T05:05:37;98955.20;;;3.80
67822;BMP180;54434;50.096;20.082;2022-11-15T05:08:32;98956.80;;;3.80
67822;BMP180;54434;50.096;20.082;2022-11-15T05:11:27;98954.60;;;3.80
67822;BMP180;54434;50.096;20.082;2022-11-15T05:14:21;98947.80;;;3.80
67822;BMP180;54434;50.096;20.082;2022-11-15T05:17:15;98948.80;;;3.74
67822;BMP180;54434;50.096;20.082;2022-11-15T05:20:13;98947.20;;;3.70
67822;BMP180;54434;50.096;20.082;2022-11-15T05:23:08;98941.40;;;3.70
67822;BMP180;54434;50.096;20.082;2022-11-15T05:26:06;98939.20;;;3.70
67822;BMP180;54434;50.096;20.082;2022-11-15T05:29:02;98937.20;;;3.70
67822;BMP180;54434;50.096;20.082;2022-11-15T05:31:56;98938.00;;;3.70
67822;BMP180;54434;50.096;20.082;2022-11-15T05:34:51;98937.00;;;3.60
67822;BMP180;54434;50.096;20.082;2022-11-15T05:37:46;98935.40;;;3.60
67822;BMP180;54434;50.096;20.082;2022-11-15T05:40:42;98935.00;;;3.50
67822;BMP180;54434;50.096;20.082;2022-11-15T05:43:39;98928.80;;;3.50
67822;BMP180;54434;50.096;20.082;2022-11-15T05:46:36;98928.20;;;3.46
67822;BMP180;54434;50.096;20.082;2022-11-15T05:49:36;98933.80;;;3.40
67822;BMP180;54434;50.096;20.082;2022-11-15T05:52:36;98931.80;;;3.40
67822;BMP180;54434;50.096;20.082;2022-11-15T05:55:31;98927.80;;;3.30
67822;BMP180;54434;50.096;20.082;2022-11-15T05:58:26;98931.40;;;3.22
67822;BMP180;54434;50.096;20.082;2022-11-15T06:01:21;98932.60;;;3.20
67822;BMP180;54434;50.096;20.082;2022-11-15T06:04:15;98933.20;;;3.20
67822;BMP180;54434;50.096;20.082;2022-11-15T06:07:10;98938.60;;;3.10
67822;BMP180;54434;50.096;20.082;2022-11-15T06:10:07;98937.80;;;3.10
67822;BMP180;54434;50.096;20.082;2022-11-15T06:13:04;98931.60;;;3.10
67822;BMP180;54434;50.096;20.082;2022-11-15T06:16:01;98922.20;;;3.10
67822;BMP180;54434;50.096;20.082;2022-11-15T06:18:56;98922.20;;;3.10
67822;BMP180;54434;50.096;20.082;2022-11-15T06:21:51;98920.00;;;3.00
67822;BMP180;54434;50.096;20.082;2022-11-15T06:24:46;98918.00;;;3.00
67822;BMP180;54434;50.096;20.082;2022-11-15T06:27:41;98916.40;;;3.00
67822;BMP180;54434;50.096;20.082;2022-11-15T06:30:36;98916.40;;;3.08
67822;BMP180;54434;50.096;20.082;2022-11-15T06:33:31;98914.60;;;3.00
67822;BMP180;54434;50.096;20.082;2022-11-15T06:36:27;98919.40;;;3.00
67822;BMP180;54434;50.096;20.082;2022-11-15T06:39:22;98915.40;;;3.00
67822;BMP180;54434;50.096;20.082;2022-11-15T06:42:16;98917.00;;;3.00
67822;BMP180;54434;50.096;20.082;2022-11-15T06:45:12;98910.60;;;3.00
67822;BMP180;54434;50.096;20.082;2022-11-15T06:48:08;98911.20;;;3.08
67822;BMP180;54434;50.096;20.082;2022-11-15T06:51:05;98915.60;;;3.00
67822;BMP180;54434;50.096;20.082;2022-11-15T06:54:01;98914.80;;;3.00
67822;BMP180;54434;50.096;20.082;2022-11-15T06:56:56;98914.40;;;3.00
67822;BMP180;54434;50.096;20.082;2022-11-15T06:59:50;98918.00;;;3.00
67822;BMP180;54434;50.096;20.082;2022-11-15T07:02:45;98920.00;;;3.00
67822;BMP180;54434;50.096;20.082;2022-11-15T07:05:40;98915.20;;;3.10
67822;BMP180;54434;50.096;20.082;2022-11-15T07:08:34;98914.20;;;3.12
67822;BMP180;54434;50.096;20.082;2022-11-15T07:11:29;98919.00;;;3.20
67822;BMP180;54434;50.096;20.082;2022-11-15T07:14:23;98917.60;;;3.20
67822;BMP180;54434;50.096;20.082;2022-11-15T07:17:18;98920.80;;;3.30
67822;BMP180;54434;50.096;20.082;2022-11-15T07:20:15;98916.40;;;3.30
67822;BMP180;54434;50.096;20.082;2022-11-15T07:23:10;98916.80;;;3.30
67822;BMP180;54434;50.096;20.082;2022-11-15T07:26:06;98917.60;;;3.30
67822;BMP180;54434;50.096;20.082;2022-11-15T07:29:01;98912.20;;;3.40
67822;BMP180;54434;50.096;20.082;2022-11-15T07:31:57;98907.40;;;3.40
67822;BMP180;54434;50.096;20.082;2022-11-15T07:34:52;98905.80;;;3.46
67822;BMP180;54434;50.096;20.082;2022-11-15T07:37:54;98899.80;;;3.54
67822;BMP180;54434;50.096;20.082;2022-11-15T07:40:57;98895.80;;;3.60
67822;BMP180;54434;50.096;20.082;2022-11-15T07:43:55;98895.00;;;3.64
67822;BMP180;54434;50.096;20.082;2022-11-15T07:46:50;98898.40;;;3.70
67822;BMP180;54434;50.096;20.082;2022-11-15T07:49:45;98903.20;;;3.70
67822;BMP180;54434;50.096;20.082;2022-11-15T07:52:40;98900.00;;;3.80
67822;BMP180;54434;50.096;20.082;2022-11-15T07:55:35;98896.60;;;3.80
67822;BMP180;54434;50.096;20.082;2022-11-15T07:58:30;98895.00;;;3.80
67822;BMP180;54434;50.096;20.082;2022-11-15T08:01:25;98888.00;;;3.80
67822;BMP180;54434;50.096;20.082;2022-11-15T08:04:19;98893.20;;;3.80
67822;BMP180;54434;50.096;20.082;2022-11-15T08:07:14;98892.00;;;3.90
67822;BMP180;54434;50.096;20.082;2022-11-15T08:10:11;98883.00;;;3.90
67822;BMP180;54434;50.096;20.082;2022-11-15T08:13:10;98874.00;;;4.00
67822;BMP180;54434;50.096;20.082;2022-11-15T08:16:06;98872.80;;;4.10
67822;BMP180;54434;50.096;20.082;2022-11-15T08:19:01;98876.80;;;4.20
67822;BMP180;54434;50.096;20.082;2022-11-15T08:21:55;98869.40;;;4.20
67822;BMP180;54434;50.096;20.082;2022-11-15T08:24:50;98870.20;;;4.32
67822;BMP180;54434;50.096;20.082;2022-11-15T08:27:45;98872.00;;;4.40
67822;BMP180;54434;50.096;20.082;2022-11-15T08:30:43;98868.40;;;4.40
67822;BMP180;54434;50.096;20.082;2022-11-15T08:33:38;98867.00;;;4.50
67822;BMP180;54434;50.096;20.082;2022-11-15T08:36:33;98866.80;;;4.60
67822;BMP180;54434;50.096;20.082;2022-11-15T08:39:38;98867.20;;;4.72
67822;BMP180;54434;50.096;20.082;2022-11-15T08:42:33;98866.20;;;4.80
67822;BMP180;54434;50.096;20.082;2022-11-15T08:45:28;98871.80;;;4.80
67822;BMP180;54434;50.096;20.082;2022-11-15T08:48:22;98869.80;;;4.90
67822;BMP180;54434;50.096;20.082;2022-11-15T08:51:17;98863.20;;;5.00
67822;BMP180;54434;50.096;20.082;2022-11-15T08:54:12;98863.80;;;5.00
67822;BMP180;54434;50.096;20.082;2022-11-15T08:57:07;98866.20;;;5.10
67822;BMP180;54434;50.096;20.082;2022-11-15T09:00:03;98860.80;;;5.10
67822;BMP180;54434;50.096;20.082;2022-11-15T09:02:58;98861.20;;;5.10
67822;BMP180;54434;50.096;20.082;2022-11-15T09:05:57;98858.40;;;5.10
67822;BMP180;54434;50.096;20.082;2022-11-15T09:08:52;98865.00;;;5.20
67822;BMP180;54434;50.096;20.082;2022-11-15T09:11:47;98860.60;;;5.34
67822;BMP180;54434;50.096;20.082;2022-11-15T09:14:42;98853.40;;;5.50
67822;BMP180;54434;50.096;20.082;2022-11-15T09:17:36;98855.60;;;5.60
67822;BMP180;54434;50.096;20.082;2022-11-15T09:20:31;98850.20;;;5.70
67822;BMP180;54434;50.096;20.082;2022-11-15T09:23:29;98847.20;;;5.80
67822;BMP180;54434;50.096;20.082;2022-11-15T09:26:24;98842.20;;;5.80
67822;BMP180;54434;50.096;20.082;2022-11-15T09:29:19;98842.00;;;6.00
67822;BMP180;54434;50.096;20.082;2022-11-15T09:32:14;98831.40;;;6.10
67822;BMP180;54434;50.096;20.082;2022-11-15T09:35:11;98830.00;;;6.20
67822;BMP180;54434;50.096;20.082;2022-11-15T09:38:06;98830.20;;;6.32
67822;BMP180;54434;50.096;20.082;2022-11-15T09:41:37;98830.60;;;6.50
67822;BMP180;54434;50.096;20.082;2022-11-15T09:44:51;98834.00;;;6.50
67822;BMP180;54434;50.096;20.082;2022-11-15T09:48:39;98832.00;;;6.60
67822;BMP180;54434;50.096;20.082;2022-11-15T09:51:49;98828.40;;;6.70
67822;BMP180;54434;50.096;20.082;2022-11-15T09:54:33;98824.80;;;6.70
67822;BMP180;54434;50.096;20.082;2022-11-15T09:57:41;98822.40;;;6.80
67822;BMP180;54434;50.096;20.082;2022-11-15T10:00:24;98820.60;;;6.80
67822;BMP180;54434;50.096;20.082;2022-11-15T10:03:27;98816.40;;;6.80
67822;BMP180;54434;50.096;20.082;2022-11-15T10:06:21;98810.40;;;6.80
67822;BMP180;54434;50.096;20.082;2022-11-15T10:09:05;98809.40;;;6.80
67822;BMP180;54434;50.096;20.082;2022-11-15T10:11:43;98807.80;;;6.90
67822;BMP180;54434;50.096;20.082;2022-11-15T10:14:23;98800.40;;;6.90
67822;BMP180;54434;50.096;20.082;2022-11-15T10:17:57;98791.60;;;6.92
67822;BMP180;54434;50.096;20.082;2022-11-15T10:20:48;98789.00;;;7.08
67822;BMP180;54434;50.096;20.082;2022-11-15T10:23:26;98791.80;;;7.20
67822;BMP180;54434;50.096;20.082;2022-11-15T10:26:09;98787.80;;;7.34
67822;BMP180;54434;50.096;20.082;2022-11-15T10:28:46;98784.80;;;7.40
67822;BMP180;54434;50.096;20.082;2022-11-15T10:31:30;98784.00;;;7.50
67822;BMP180;54434;50.096;20.082;2022-11-15T10:34:17;98782.80;;;7.60
67822;BMP180;54434;50.096;20.082;2022-11-15T10:37:01;98775.60;;;7.60
67822;BMP180;54434;50.096;20.082;2022-11-15T10:39:37;98767.40;;;7.60
67822;BMP180;54434;50.096;20.082;2022-11-15T10:42:30;98761.20;;;7.70
67822;BMP180;54434;50.096;20.082;2022-11-15T10:45:27;98751.20;;;7.70
67822;BMP180;54434;50.096;20.082;2022-11-15T10:48:27;98741.60;;;7.78
67822;BMP180;54434;50.096;20.082;2022-11-15T10:51:21;98738.80;;;7.80
67822;BMP180;54434;50.096;20.082;2022-11-15T10:54:02;98738.40;;;7.90
67822;BMP180;54434;50.096;20.082;2022-11-15T10:56:50;98732.20;;;7.90
67822;BMP180;54434;50.096;20.082;2022-11-15T10:59:31;98731.20;;;7.92
67822;BMP180;54434;50.096;20.082;2022-11-15T11:02:55;98730.80;;;8.00
67822;BMP180;54434;50.096;20.082;2022-11-15T11:05:36;98720.20;;;8.00
67822;BMP180;54434;50.096;20.082;2022-11-15T11:08:26;98714.80;;;8.10
67822;BMP180;54434;50.096;20.082;2022-11-15T11:11:05;98711.20;;;8.10
67822;BMP180;54434;50.096;20.082;2022-11-15T11:13:42;98707.40;;;8.10
67822;BMP180;54434;50.096;20.082;2022-11-15T11:16:50;98708.00;;;8.10
67822;BMP180;54434;50.096;20.082;2022-11-15T11:20:02;98706.60;;;8.18
67822;BMP180;54434;50.096;20.082;2022-11-15T11:23:03;98703.00;;;8.10
67822;BMP180;54434;50.096;20.082;2022-11-15T11:25:48;98696.80;;;8.20
67822;BMP180;54434;50.096;20.082;2022-11-15T11:28:41;98692.20;;;8.20
67822;BMP180;54434;50.096;20.082;2022-11-15T11:31:34;98692.80;;;8.20
67822;BMP180;54434;50.096;20.082;2022-11-15T11:34:27;98692.60;;;8.20
67822;BMP180;54434;50.096;20.082;2022-11-15T11:37:20;98689.20;;;8.30
67822;BMP180;54434;50.096;20.082;2022-11-15T11:40:10;98685.20;;;8.30
67822;BMP180;54434;50.096;20.082;2022-11-15T11:43:00;98687.40;;;8.40
67822;BMP180;54434;50.096;20.082;2022-11-15T11:46:14;98686.40;;;8.44
67822;BMP180;54434;50.096;20.082;2022-11-15T11:48:58;98681.60;;;8.50
67822;BMP180;54434;50.096;20.082;2022-11-15T11:51:43;98673.00;;;8.60
67822;BMP180;54434;50.096;20.082;2022-11-15T11:54:31;98669.00;;;8.70
67822;BMP180;54434;50.096;20.082;2022-11-15T11:57:30;98663.80;;;8.70
67822;BMP180;54434;50.096;20.082;2022-11-15T12:00:20;98663.00;;;8.80
67822;BMP180;54434;50.096;20.082;2022-11-15T12:03:11;98656.40;;;8.82
67822;BMP180;54434;50.096;20.082;2022-11-15T12:05:54;98654.20;;;8.90
67822;BMP180;54434;50.096;20.082;2022-11-15T12:08:43;98650.80;;;9.00
67822;BMP180;54434;50.096;20.082;2022-11-15T12:11:32;98644.00;;;9.00
67822;BMP180;54434;50.096;20.082;2022-11-15T12:14:27;98644.20;;;9.04
67822;BMP180;54434;50.096;20.082;2022-11-15T12:17:04;98644.80;;;9.10
67822;BMP180;54434;50.096;20.082;2022-11-15T12:19:41;98641.60;;;9.14
67822;BMP180;54434;50.096;20.082;2022-11-15T12:22:23;98634.60;;;9.20
67822;BMP180;54434;50.096;20.082;2022-11-15T12:25:07;98639.00;;;9.26
67822;BMP180;54434;50.096;20.082;2022-11-15T12:27:50;98631.80;;;9.30
67822;BMP180;54434;50.096;20.082;2022-11-15T12:30:36;98636.00;;;9.32
67822;BMP180;54434;50.096;20.082;2022-11-15T12:33:40;98633.40;;;9.40
67822;BMP180;54434;50.096;20.082;2022-11-15T12:36:42;98628.00;;;9.44
67822;BMP180;54434;50.096;20.082;2022-11-15T12:39:20;98628.40;;;9.50
67822;BMP180;54434;50.096;20.082;2022-11-15T12:45:22;98620.20;;;9.60
67822;BMP180;54434;50.096;20.082;2022-11-15T12:52:08;98611.40;;;9.60
67822;BMP180;54434;50.096;20.082;2022-11-15T12:55:30;98612.00;;;9.60
67822;BMP180;54434;50.096;20.082;2022-11-15T12:58:45;98610.80;;;9.50
67822;BMP180;54434;50.096;20.082;2022-11-15T13:02:11;98608.20;;;9.50
67822;BMP180;54434;50.096;20.082;2022-11-15T13:05:56;98601.80;;;9.50
67822;BMP180;54434;50.096;20.082;2022-11-15T13:08:02;98600.20;;;9.40
67822;BMP180;54434;50.096;20.082;2022-11-15T13:10:38;98598.40;;;9.40
67822;BMP180;54434;50.096;20.082;2022-11-15T13:13:45;98600.60;;;9.40
67822;BMP180;54434;50.096;20.082;2022-11-15T13:16:23;98599.40;;;9.40
67822;BMP180;54434;50.096;20.082;2022-11-15T13:19:03;98600.20;;;9.30
67822;BMP180;54434;50.096;20.082;2022-11-15T13:21:50;98593.60;;;9.30
67822;BMP180;54434;50.096;20.082;2022-11-15T13:24:44;98592.40;;;9.30
67822;BMP180;54434;50.096;20.082;2022-11-15T13:27:22;98589.40;;;9.30
67822;BMP180;54434;50.096;20.082;2022-11-15T13:29:58;98591.80;;;9.20
67822;BMP180;54434;50.096;20.082;2022-11-15T13:32:34;98588.00;;;9.20
67822;BMP180;54434;50.096;20.082;2022-11-15T13:35:23;98579.60;;;9.20
67822;BMP180;54434;50.096;20.082;2022-11-15T13:38:06;98583.20;;;9.20
67822;BMP180;54434;50.096;20.082;2022-11-15T13:40:42;98583.20;;;9.20
67822;BMP180;54434;50.096;20.082;2022-11-15T13:43:34;98584.80;;;9.20
67822;BMP180;54434;50.096;20.082;2022-11-15T13:46:12;98577.60;;;9.20
67822;BMP180;54434;50.096;20.082;2022-11-15T13:48:53;98574.80;;;9.20
67822;BMP180;54434;50.096;20.082;2022-11-15T13:51:44;98565.20;;;9.20
67822;BMP180;54434;50.096;20.082;2022-11-15T13:54:27;98560.40;;;9.20
67822;BMP180;54434;50.096;20.082;2022-11-15T13:57:08;98562.80;;;9.20
67822;BMP180;54434;50.096;20.082;2022-11-15T13:59:54;98558.80;;;9.20
67822;BMP180;54434;50.096;20.082;2022-11-15T14:02:34;98551.80;;;9.20
67822;BMP180;54434;50.096;20.082;2022-11-15T14:05:22;98544.00;;;9.20
67822;BMP180;54434;50.096;20.082;2022-11-15T14:08:00;98544.40;;;9.20
67822;BMP180;54434;50.096;20.082;2022-11-15T14:10:39;98550.60;;;9.20
67822;BMP180;54434;50.096;20.082;2022-11-15T14:13:31;98547.60;;;9.20
67822;BMP180;54434;50.096;20.082;2022-11-15T14:16:34;98549.40;;;9.18
67822;BMP180;54434;50.096;20.082;2022-11-15T14:19:35;98554.00;;;9.10
67822;BMP180;54434;50.096;20.082;2022-11-15T14:22:22;98550.40;;;9.00
67822;BMP180;54434;50.096;20.082;2022-11-15T14:25:19;98546.60;;;9.00
67822;BMP180;54434;50.096;20.082;2022-11-15T14:28:33;98537.80;;;8.90
67822;BMP180;54434;50.096;20.082;2022-11-15T14:31:20;98541.80;;;8.88
67822;BMP180;54434;50.096;20.082;2022-11-15T14:33:56;98531.60;;;8.80
67822;BMP180;54434;50.096;20.082;2022-11-15T14:36:32;98528.00;;;8.80
67822;BMP180;54434;50.096;20.082;2022-11-15T14:39:08;98533.80;;;8.70
67822;BMP180;54434;50.096;20.082;2022-11-15T14:41:44;98530.00;;;8.70
67822;BMP180;54434;50.096;20.082;2022-11-15T14:44:20;98523.20;;;8.60
67822;BMP180;54434;50.096;20.082;2022-11-15T14:46:56;98521.80;;;8.60
67822;BMP180;54434;50.096;20.082;2022-11-15T14:49:32;98516.00;;;8.50
67822;BMP180;54434;50.096;20.082;2022-11-15T14:52:28;98513.80;;;8.50
67822;BMP180;54434;50.096;20.082;2022-11-15T14:55:20;98506.00;;;8.40
67822;BMP180;54434;50.096;20.082;2022-11-15T14:57:58;98507.40;;;8.58
67822;BMP180;54434;50.096;20.082;2022-11-15T15:00:36;98508.00;;;8.80
67822;BMP180;54434;50.096;20.082;2022-11-15T15:03:12;98507.40;;;8.98
67822;BMP180;54434;50.096;20.082;2022-11-15T15:05:49;98505.00;;;9.08
67822;BMP180;54434;50.096;20.082;2022-11-15T15:08:25;98509.60;;;8.94
67822;BMP180;54434;50.096;20.082;2022-11-15T15:11:01;98506.40;;;8.80
67822;BMP180;54434;50.096;20.082;2022-11-15T15:13:37;98507.20;;;8.70
67822;BMP180;54434;50.096;20.082;2022-11-15T15:16:13;98508.40;;;8.62
67822;BMP180;54434;50.096;20.082;2022-11-15T15:18:49;98501.80;;;8.52
67822;BMP180;54434;50.096;20.082;2022-11-15T15:21:27;98498.20;;;8.50
67822;BMP180;54434;50.096;20.082;2022-11-15T15:24:16;98496.40;;;8.40
67822;BMP180;54434;50.096;20.082;2022-11-15T15:26:52;98487.60;;;8.40
67822;BMP180;54434;50.096;20.082;2022-11-15T15:29:28;98485.40;;;8.30
67822;BMP180;54434;50.096;20.082;2022-11-15T15:32:04;98482.20;;;8.30
67822;BMP180;54434;50.096;20.082;2022-11-15T15:34:40;98484.20;;;8.20
67822;BMP180;54434;50.096;20.082;2022-11-15T15:37:25;98483.80;;;8.10
67822;BMP180;54434;50.096;20.082;2022-11-15T15:40:01;98479.60;;;8.08
67822;BMP180;54434;50.096;20.082;2022-11-15T15:42:37;98481.40;;;8.00
67822;BMP180;54434;50.096;20.082;2022-11-15T15:45:15;98484.00;;;8.00
67822;BMP180;54434;50.096;20.082;2022-11-15T15:47:52;98482.20;;;7.90
67822;BMP180;54434;50.096;20.082;2022-11-15T15:50:32;98482.40;;;7.90
67822;BMP180;54434;50.096;20.082;2022-11-15T15:53:08;98480.00;;;7.80
67822;BMP180;54434;50.096;20.082;2022-11-15T15:55:45;98477.40;;;7.74
67822;BMP180;54434;50.096;20.082;2022-11-15T15:58:21;98477.80;;;7.70
67822;BMP180;54434;50.096;20.082;2022-11-15T16:00:57;98478.40;;;7.70
67822;BMP180;54434;50.096;20.082;2022-11-15T16:03:33;98470.80;;;7.60
67822;BMP180;54434;50.096;20.082;2022-11-15T16:06:37;98467.40;;;7.60
67822;BMP180;54434;50.096;20.082;2022-11-15T16:09:18;98469.00;;;7.60
67822;BMP180;54434;50.096;20.082;2022-11-15T16:12:14;98475.00;;;7.60
67822;BMP180;54434;50.096;20.082;2022-11-15T16:14:51;98470.80;;;7.60
67822;BMP180;54434;50.096;20.082;2022-11-15T16:17:31;98467.20;;;7.60
67822;BMP180;54434;50.096;20.082;2022-11-15T16:20:31;98471.80;;;7.56
67822;BMP180;54434;50.096;20.082;2022-11-15T16:23:17;98470.40;;;7.50
67822;BMP180;54434;50.096;20.082;2022-11-15T16:25:56;98470.80;;;7.50
67822;BMP180;54434;50.096;20.082;2022-11-15T16:28:33;98472.60;;;7.50
67822;BMP180;54434;50.096;20.082;2022-11-15T16:31:13;98472.40;;;7.50
67822;BMP180;54434;50.096;20.082;2022-11-15T16:33:52;98472.00;;;7.50
67822;BMP180;54434;50.096;20.082;2022-11-15T16:36:32;98466.60;;;7.50
67822;BMP180;54434;50.096;20.082;2022-11-15T16:39:13;98468.20;;;7.50
67822;BMP180;54434;50.096;20.082;2022-11-15T16:41:53;98465.20;;;7.52
67822;BMP180;54434;50.096;20.082;2022-11-15T16:44:30;98464.80;;;7.54
67822;BMP180;54434;50.096;20.082;2022-11-15T16:47:10;98463.80;;;7.56
67822;BMP180;54434;50.096;20.082;2022-11-15T16:49:48;98457.80;;;7.60